createdAt,value
2023-05-12T00:01:42.051Z,83.83
2023-05-12T00:03:45.575Z,83.31
2023-05-12T00:05:49.132Z,83.06
2023-05-12T00:07:52.545Z,82.89
2023-05-12T00:09:55.889Z,82.89
2023-05-12T00:12:00.733Z,82.51
2023-05-12T00:14:04.172Z,82.35
2023-05-12T00:16:07.987Z,82.12
2023-05-12T00:18:11.340Z,81.59
2023-05-12T00:20:14.699Z,81.57
2023-05-12T00:22:18.174Z,81.44
2023-05-12T00:24:21.544Z,81.22
2023-05-12T00:26:25.082Z,81.34
2023-05-12T00:28:30.840Z,81.20
2023-05-12T00:30:34.358Z,81.25
2023-05-12T00:32:37.816Z,81.14
2023-05-12T00:34:42.225Z,80.88
2023-05-12T00:36:45.570Z,81.02
2023-05-12T00:38:48.925Z,80.83
2023-05-12T00:40:52.345Z,80.92
2023-05-12T00:42:55.661Z,80.89
2023-05-12T00:45:00.437Z,80.94
2023-05-12T00:47:05.019Z,80.92
2023-05-12T00:49:09.034Z,80.75
2023-05-12T00:51:13.979Z,80.43
2023-05-12T00:53:17.428Z,80.49
2023-05-12T00:55:21.715Z,80.53
2023-05-12T00:57:27.952Z,80.44
2023-05-12T00:59:32.178Z,80.23
2023-05-12T01:01:37.951Z,80.34
2023-05-12T01:03:41.824Z,80.25
2023-05-12T01:05:51.300Z,79.95
2023-05-12T01:07:55.132Z,80.16
2023-05-12T01:09:59.220Z,80.21
2023-05-12T01:12:03.920Z,80.18
2023-05-12T01:14:08.913Z,80.20
2023-05-12T01:16:16.478Z,80.22
2023-05-12T01:18:22.770Z,80.05
2023-05-12T01:20:28.572Z,79.96
2023-05-12T01:22:33.909Z,79.31
2023-05-12T01:24:51.888Z,79.08
2023-05-12T01:26:57.167Z,78.88
2023-05-12T01:29:02.566Z,78.72
2023-05-12T01:31:07.555Z,78.66
2023-05-12T01:33:12.780Z,78.56
2023-05-12T01:35:16.170Z,78.81
2023-05-12T01:37:26.860Z,78.48
2023-05-12T01:39:31.071Z,78.67
2023-05-12T01:41:34.482Z,78.62
2023-05-12T01:43:39.202Z,78.29
2023-05-12T01:45:42.562Z,78.33
2023-05-12T01:47:46.585Z,78.18
2023-05-12T01:49:50.081Z,78.42
2023-05-12T01:51:53.438Z,78.47
2023-05-12T01:54:02.450Z,78.59
2023-05-12T01:56:09.299Z,78.91
2023-05-12T01:58:13.166Z,79.12
2023-05-12T02:00:18.777Z,79.28
2023-05-12T02:02:24.677Z,79.57
2023-05-12T02:04:28.188Z,79.45
2023-05-12T02:06:33.108Z,79.77
2023-05-12T02:08:36.688Z,79.53
2023-05-12T02:10:40.926Z,79.49
2023-05-12T02:12:44.343Z,79.26
2023-05-12T02:14:47.999Z,79.00
2023-05-12T02:16:53.084Z,79.15
2023-05-12T02:18:59.531Z,79.28
2023-05-12T02:21:03.313Z,79.24
2023-05-12T02:23:06.692Z,79.29
2023-05-12T02:25:10.767Z,79.25
2023-05-12T02:27:15.445Z,79.40
2023-05-12T02:29:19.028Z,79.28
2023-05-12T02:31:22.474Z,79.08
2023-05-12T02:33:27.454Z,79.39
2023-05-12T02:35:30.931Z,79.17
2023-05-12T02:37:34.324Z,79.06
2023-05-12T02:39:37.810Z,78.96
2023-05-12T02:41:41.248Z,79.11
2023-05-12T02:43:44.621Z,79.19
2023-05-12T02:45:48.357Z,79.10
2023-05-12T02:47:51.825Z,78.84
2023-05-12T02:49:56.984Z,78.66
2023-05-12T02:52:00.481Z,78.69
2023-05-12T02:54:04.057Z,78.75
2023-05-12T02:56:08.830Z,78.79
2023-05-12T02:58:12.336Z,78.90
2023-05-12T03:00:16.492Z,79.22
2023-05-12T03:02:20.007Z,79.26
2023-05-12T03:04:23.482Z,79.56
2023-05-12T03:06:28.282Z,79.59
2023-05-12T03:08:31.774Z,79.56
2023-05-12T03:10:35.383Z,79.09
2023-05-12T03:12:38.819Z,79.15
2023-05-12T03:14:42.260Z,79.12
2023-05-12T03:16:45.869Z,79.34
2023-05-12T03:18:50.312Z,79.46
2023-05-12T03:20:53.769Z,79.85
2023-05-12T03:23:00.450Z,79.74
2023-05-12T03:25:05.408Z,80.02
2023-05-12T03:27:09.000Z,80.03
2023-05-12T03:29:12.694Z,80.08
2023-05-12T03:31:16.551Z,80.05
2023-05-12T03:33:20.005Z,80.10
2023-05-12T03:35:23.451Z,80.10
2023-05-12T03:37:27.356Z,79.89
2023-05-12T03:39:32.446Z,79.73
2023-05-12T03:41:35.902Z,79.86
2023-05-12T03:43:39.268Z,80.07
2023-05-12T03:45:42.889Z,79.92
2023-05-12T03:47:46.405Z,80.01
2023-05-12T03:49:50.005Z,79.85
2023-05-12T03:51:53.591Z,79.78
2023-05-12T03:53:56.963Z,80.09
2023-05-12T03:56:05.379Z,80.09
2023-05-12T03:58:09.473Z,80.18
2023-05-12T04:00:14.029Z,80.03
2023-05-12T04:02:20.462Z,80.36
2023-05-12T04:04:23.930Z,80.09
2023-05-12T04:06:27.281Z,80.20
2023-05-12T04:08:30.976Z,80.16
2023-05-12T04:10:34.430Z,80.25
2023-05-12T04:12:39.356Z,79.98
2023-05-12T04:14:44.725Z,79.95
2023-05-12T04:16:48.525Z,79.91
2023-05-12T04:18:51.956Z,80.01
2023-05-12T04:20:55.565Z,79.72
2023-05-12T04:22:59.032Z,79.57
2023-05-12T04:25:02.406Z,79.75
2023-05-12T04:27:07.013Z,79.65
2023-05-12T04:29:13.388Z,79.40
2023-05-12T04:31:17.154Z,79.48
2023-05-12T04:33:20.990Z,79.26
2023-05-12T04:35:24.347Z,79.58
2023-05-12T04:37:27.727Z,79.58
2023-05-12T04:39:31.040Z,79.54
2023-05-12T04:41:35.884Z,79.20
2023-05-12T04:45:47.244Z,78.67
2023-05-12T04:47:51.015Z,78.67
2023-05-12T04:49:55.805Z,78.16
2023-05-12T04:51:59.196Z,77.80
2023-05-12T04:54:03.252Z,77.69
2023-05-12T04:56:08.217Z,78.04
2023-05-12T04:58:14.639Z,78.09
2023-05-12T05:00:18.944Z,77.86
2023-05-12T05:02:25.168Z,77.46
2023-05-12T05:04:29.095Z,77.04
2023-05-12T05:06:32.561Z,76.67
2023-05-12T05:08:37.023Z,76.67
2023-05-12T05:10:40.598Z,76.98
2023-05-12T05:12:44.051Z,76.50
2023-05-12T05:14:48.504Z,76.99
2023-05-12T05:16:52.004Z,76.58
2023-05-12T05:18:58.405Z,76.50
2023-05-12T05:21:02.491Z,76.23
2023-05-12T05:23:07.215Z,75.91
2023-05-12T05:25:11.354Z,75.38
2023-05-12T05:27:15.002Z,74.67
2023-05-12T05:29:18.396Z,74.50
2023-05-12T05:31:22.075Z,74.88
2023-05-12T05:33:25.821Z,74.81
2023-05-12T05:35:32.015Z,75.03
2023-05-12T05:37:36.069Z,74.93
2023-05-12T05:39:39.533Z,74.45
2023-05-12T05:41:42.899Z,74.39
2023-05-12T05:43:46.313Z,74.05
2023-05-12T05:45:50.467Z,73.85
2023-05-12T05:47:54.716Z,73.63
2023-05-12T05:49:58.627Z,73.36
2023-05-12T05:52:03.532Z,72.82
2023-05-12T05:54:07.534Z,72.93
2023-05-12T05:56:11.174Z,73.71
2023-05-12T05:58:15.285Z,73.75
2023-05-12T06:00:19.466Z,73.56
2023-05-12T06:02:27.437Z,72.90
2023-05-12T06:04:30.822Z,72.01
2023-05-12T06:06:34.586Z,71.82
2023-05-12T06:08:39.355Z,71.79
2023-05-12T06:10:42.699Z,71.82
2023-05-12T06:12:46.074Z,71.90
2023-05-12T06:14:49.448Z,70.86
2023-05-12T06:16:52.848Z,70.77
2023-05-12T06:18:56.339Z,70.78
2023-05-12T06:20:59.714Z,70.40
2023-05-12T06:23:03.154Z,69.82
2023-05-12T06:25:08.918Z,69.36
2023-05-12T06:27:12.320Z,68.68
2023-05-12T06:29:15.647Z,68.82
2023-05-12T06:31:19.242Z,68.13
2023-05-12T06:33:24.674Z,68.01
2023-05-12T06:35:28.199Z,67.56
2023-05-12T06:37:31.591Z,66.53
2023-05-12T06:39:34.970Z,65.99
2023-05-12T06:41:39.778Z,65.09
2023-05-12T06:43:43.281Z,64.85
2023-05-12T06:45:46.879Z,64.63
2023-05-12T06:47:50.347Z,64.12
2023-05-12T06:49:55.006Z,64.06
2023-05-12T06:51:58.455Z,63.45
2023-05-12T06:54:01.936Z,62.52
2023-05-12T06:56:07.768Z,62.47
2023-05-12T06:58:12.743Z,63.01
2023-05-12T07:00:18.591Z,63.07
2023-05-12T07:02:25.686Z,62.07
2023-05-12T07:04:29.778Z,62.26
2023-05-12T07:06:34.562Z,62.08
2023-05-12T07:08:37.907Z,61.63
2023-05-12T07:10:41.383Z,60.88
2023-05-12T07:12:44.780Z,60.80
2023-05-12T07:14:49.593Z,60.46
2023-05-12T07:16:53.113Z,59.38
2023-05-12T07:18:56.608Z,58.61
2023-05-12T07:21:00.147Z,58.29
2023-05-12T07:23:03.795Z,58.25
2023-05-12T07:25:08.163Z,57.46
2023-05-12T07:27:11.660Z,57.56
2023-05-12T07:29:15.142Z,57.36
2023-05-12T07:31:20.304Z,57.64
2023-05-12T07:33:23.733Z,57.41
2023-05-12T07:35:27.076Z,56.67
2023-05-12T07:37:30.620Z,56.13
2023-05-12T07:39:34.034Z,56.41
2023-05-12T07:41:39.557Z,55.93
2023-05-12T07:43:42.876Z,54.95
2023-05-12T07:45:46.816Z,54.19
2023-05-12T07:47:52.177Z,53.53
2023-05-12T07:49:55.860Z,53.91
2023-05-12T07:51:59.242Z,54.18
2023-05-12T07:54:02.679Z,53.78
2023-05-12T07:56:08.204Z,53.47
2023-05-12T07:58:11.776Z,53.37
2023-05-12T08:00:15.894Z,53.72
2023-05-12T08:02:20.772Z,53.64
2023-05-12T08:04:28.695Z,53.10
2023-05-12T08:06:32.358Z,52.30
2023-05-12T08:08:36.633Z,51.26
2023-05-12T08:10:40.001Z,51.12
2023-05-12T08:12:43.939Z,50.80
2023-05-12T08:14:47.457Z,50.92
2023-05-12T08:16:50.879Z,51.12
2023-05-12T08:18:56.876Z,51.81
2023-05-12T08:21:01.724Z,51.66
2023-05-12T08:23:05.102Z,51.64
2023-05-12T08:25:11.732Z,51.63
2023-05-12T08:27:15.944Z,51.54
2023-05-12T08:29:19.978Z,51.45
2023-05-12T08:31:23.617Z,50.97
2023-05-12T08:33:27.085Z,50.44
2023-05-12T08:35:30.830Z,49.25
2023-05-12T08:37:35.728Z,48.52
2023-05-12T08:39:39.152Z,48.42
2023-05-12T08:41:45.157Z,47.85
2023-05-12T08:43:53.299Z,47.75
2023-05-12T08:45:58.503Z,47.67
2023-05-12T08:48:02.326Z,47.86
2023-05-12T08:50:07.089Z,47.45
2023-05-12T08:52:11.362Z,46.64
2023-05-12T08:54:18.027Z,46.40
2023-05-12T08:58:40.390Z,46.45
2023-05-12T09:00:47.011Z,45.34
2023-05-12T09:02:54.461Z,45.69
2023-05-12T09:04:58.410Z,45.38
2023-05-12T09:07:01.846Z,45.11
2023-05-12T09:09:05.280Z,45.08
2023-05-12T09:11:13.184Z,44.53
2023-05-12T09:13:21.381Z,44.68
2023-05-12T09:15:45.302Z,44.72
2023-05-12T09:17:48.706Z,44.03
2023-05-12T09:19:52.100Z,43.48
2023-05-12T09:21:56.158Z,42.75
2023-05-12T09:24:00.950Z,42.60
2023-05-12T09:26:04.442Z,42.59
2023-05-12T09:28:09.865Z,42.41
2023-05-12T09:30:14.434Z,41.85
2023-05-12T09:32:17.880Z,41.96
2023-05-12T09:34:28.876Z,43.01
2023-05-12T09:36:32.435Z,41.26
2023-05-12T09:38:35.782Z,40.51
2023-05-12T09:40:39.748Z,40.09
2023-05-12T09:42:43.973Z,40.07
2023-05-12T09:44:48.908Z,40.02
2023-05-12T09:46:52.856Z,39.81
2023-05-12T09:48:57.731Z,39.58
2023-05-12T09:51:01.084Z,39.24
2023-05-12T09:53:08.050Z,37.79
2023-05-12T09:55:13.371Z,37.58
2023-05-12T09:57:17.705Z,37.60
2023-05-12T09:59:26.765Z,37.19
2023-05-12T10:01:32.722Z,36.92
2023-05-12T10:03:37.641Z,35.82
2023-05-12T10:05:48.789Z,35.21
2023-05-12T10:07:55.406Z,35.83
2023-05-12T10:10:02.320Z,36.06
2023-05-12T10:12:06.423Z,35.78
2023-05-12T10:14:10.108Z,34.91
2023-05-12T10:16:14.091Z,35.23
2023-05-12T10:18:19.515Z,35.26
2023-05-12T10:20:23.066Z,35.31
2023-05-12T10:22:27.884Z,35.30
2023-05-12T10:24:31.361Z,34.84
2023-05-12T10:26:35.061Z,34.32
2023-05-12T10:28:38.494Z,32.92
2023-05-12T10:30:43.404Z,32.65
2023-05-12T10:32:47.023Z,33.20
2023-05-12T10:34:52.154Z,34.01
2023-05-12T10:36:55.528Z,33.21
2023-05-12T10:39:07.067Z,33.09
2023-05-12T10:41:11.130Z,34.05
2023-05-12T10:43:23.154Z,33.60
2023-05-12T10:45:26.856Z,33.14
2023-05-12T10:47:38.815Z,33.89
2023-05-12T10:49:43.500Z,34.27
2023-05-12T10:51:51.160Z,34.42
2023-05-12T10:53:58.105Z,34.21
2023-05-12T10:56:05.680Z,34.08
2023-05-12T10:58:12.304Z,34.89
2023-05-12T11:00:17.259Z,35.22
2023-05-12T11:02:27.445Z,35.20
2023-05-12T11:04:40.826Z,35.16
2023-05-12T11:06:46.981Z,34.61
2023-05-12T11:08:53.303Z,34.51
2023-05-12T11:10:59.192Z,34.55
2023-05-12T11:13:03.981Z,35.35
2023-05-12T11:15:08.427Z,35.22
2023-05-12T11:17:12.031Z,35.40
2023-05-12T11:19:15.494Z,35.91
2023-05-12T11:21:18.983Z,36.01
2023-05-12T11:23:27.369Z,35.93
2023-05-12T11:25:32.167Z,35.09
2023-05-12T11:27:35.935Z,34.76
2023-05-12T11:29:40.179Z,34.83
2023-05-12T11:31:47.914Z,35.26
2023-05-12T11:33:58.676Z,34.98
2023-05-12T11:36:08.394Z,34.92
2023-05-12T11:38:16.989Z,34.11
2023-05-12T11:40:21.909Z,34.09
2023-05-12T11:42:26.775Z,33.07
2023-05-12T11:44:30.438Z,33.04
2023-05-12T11:46:33.794Z,33.10
2023-05-12T11:48:37.131Z,32.59
2023-05-12T11:50:41.711Z,31.32
2023-05-12T11:52:46.447Z,30.79
2023-05-12T11:54:50.821Z,29.89
2023-05-12T11:56:55.582Z,29.49
2023-05-12T11:59:00.530Z,29.40
2023-05-12T12:01:10.741Z,29.44
2023-05-12T12:03:16.589Z,29.36
2023-05-12T12:05:21.410Z,29.23
2023-05-12T12:07:32.040Z,29.43
2023-05-12T12:09:36.537Z,30.22
2023-05-12T12:11:39.912Z,30.93
2023-05-12T12:13:50.279Z,31.34
2023-05-12T12:15:55.088Z,31.11
2023-05-12T12:17:58.844Z,31.25
2023-05-12T12:20:02.334Z,31.10
2023-05-12T12:22:06.273Z,30.38
2023-05-12T12:24:09.791Z,30.52
2023-05-12T12:26:14.327Z,29.38
2023-05-12T12:28:17.623Z,28.97
2023-05-12T12:30:21.391Z,28.66
2023-05-12T12:32:26.160Z,29.00
2023-05-12T12:34:29.708Z,29.63
2023-05-12T12:36:33.418Z,29.17
2023-05-12T12:38:36.863Z,28.81
2023-05-12T12:40:40.425Z,28.30
2023-05-12T12:42:43.729Z,28.80
2023-05-12T12:44:50.270Z,28.86
2023-05-12T12:46:53.779Z,28.08
2023-05-12T12:48:59.246Z,27.96
2023-05-12T12:51:02.775Z,28.23
2023-05-12T12:53:06.341Z,26.94
2023-05-12T12:55:10.448Z,27.90
2023-05-12T12:57:13.813Z,27.29
2023-05-12T12:59:17.208Z,27.13
2023-05-12T13:01:20.642Z,26.35
2023-05-12T13:03:25.081Z,26.63
2023-05-12T13:05:29.853Z,26.14
2023-05-12T13:07:33.437Z,25.59
2023-05-12T13:09:36.810Z,25.43
2023-05-12T13:11:40.626Z,24.88
2023-05-12T13:13:44.020Z,25.31
2023-05-12T13:15:47.533Z,25.22
2023-05-12T13:17:51.900Z,25.23
2023-05-12T13:19:59.278Z,24.64
2023-05-12T13:22:04.368Z,24.96
2023-05-12T13:24:07.806Z,25.15
2023-05-12T13:26:11.103Z,25.02
2023-05-12T13:28:14.457Z,25.06
2023-05-12T13:30:17.795Z,25.13
2023-05-12T13:32:21.802Z,24.79
2023-05-12T13:34:25.196Z,24.27
2023-05-12T13:36:28.582Z,24.60
2023-05-12T13:38:33.940Z,23.80
2023-05-12T13:40:37.486Z,23.71
2023-05-12T13:42:40.824Z,23.15
2023-05-12T13:44:44.205Z,22.88
2023-05-12T13:46:47.634Z,22.98
2023-05-12T13:48:52.437Z,23.29
2023-05-12T13:50:55.919Z,23.08
2023-05-12T13:52:59.269Z,22.62
2023-05-12T13:55:04.386Z,22.63
2023-05-12T13:57:07.906Z,22.39
2023-05-12T13:59:11.233Z,22.23
2023-05-12T14:01:14.678Z,21.82
2023-05-12T14:03:18.179Z,21.36
2023-05-12T14:05:22.133Z,21.19
2023-05-12T14:07:25.692Z,21.55
2023-05-12T14:09:29.001Z,21.68
2023-05-12T14:11:34.596Z,21.72
2023-05-12T14:13:38.217Z,21.65
2023-05-12T14:15:48.682Z,21.67
2023-05-12T14:17:54.666Z,21.58
2023-05-12T14:19:58.202Z,21.17
2023-05-12T14:22:03.206Z,21.32
2023-05-12T14:24:08.692Z,20.71
2023-05-12T14:26:12.090Z,20.87
2023-05-12T14:28:16.884Z,20.99
2023-05-12T14:30:21.833Z,20.92
2023-05-12T14:32:25.213Z,20.87
2023-05-12T14:34:28.633Z,21.80
2023-05-12T14:36:32.209Z,22.13
2023-05-12T14:38:35.789Z,22.09
2023-05-12T14:40:40.328Z,22.21
2023-05-12T14:42:43.798Z,22.44
2023-05-12T14:44:48.554Z,22.06
2023-05-12T14:46:51.854Z,22.44
2023-05-12T14:48:55.451Z,22.29
2023-05-12T14:50:59.071Z,21.85
2023-05-12T14:53:02.559Z,22.52
2023-05-12T14:55:11.583Z,22.47
2023-05-12T14:57:15.120Z,23.58
2023-05-12T14:59:18.512Z,23.66
2023-05-12T15:01:23.639Z,23.14
2023-05-12T15:03:27.096Z,23.18
2023-05-12T15:05:52.773Z,23.10
2023-05-12T15:07:54.367Z,22.73
2023-05-12T15:09:57.670Z,22.75
2023-05-12T15:12:02.205Z,22.71
2023-05-12T15:14:05.833Z,23.67
2023-05-12T15:16:09.321Z,23.53
2023-05-12T15:18:14.286Z,23.28
2023-05-12T15:20:17.702Z,23.25
2023-05-12T15:22:21.145Z,23.76
2023-05-12T15:24:24.585Z,23.43
2023-05-12T15:26:33.818Z,23.76
2023-05-12T15:28:38.524Z,23.69
2023-05-12T15:30:41.876Z,23.85
2023-05-12T15:32:45.314Z,23.99
2023-05-12T15:34:49.997Z,23.87
2023-05-12T15:36:53.336Z,24.64
2023-05-12T15:38:56.726Z,24.73
2023-05-12T15:41:00.341Z,24.49
2023-05-12T15:43:05.040Z,24.63
2023-05-12T15:45:09.742Z,24.74
2023-05-12T15:47:13.034Z,24.74
2023-05-12T15:49:16.366Z,25.42
2023-05-12T15:51:21.320Z,24.75
2023-05-12T15:53:24.698Z,25.00
2023-05-12T15:55:28.228Z,24.79
2023-05-12T15:57:31.801Z,25.11
2023-05-12T15:59:35.790Z,24.96
2023-05-12T16:01:40.235Z,25.13
2023-05-12T16:03:44.780Z,25.29
2023-05-12T16:05:49.029Z,25.70
2023-05-12T16:07:54.972Z,26.22
2023-05-12T16:09:59.617Z,26.28
2023-05-12T16:12:03.700Z,26.70
2023-05-12T16:14:07.806Z,27.25
2023-05-12T16:16:12.354Z,27.48
2023-05-12T16:18:17.149Z,27.30
2023-05-12T16:20:22.202Z,27.80
2023-05-12T16:22:27.109Z,28.38
2023-05-12T16:24:33.637Z,28.86
2023-05-12T16:26:42.113Z,29.14
2023-05-12T16:28:46.062Z,29.41
2023-05-12T16:30:50.530Z,30.04
2023-05-12T16:32:55.623Z,29.77
2023-05-12T16:35:01.332Z,29.75
2023-05-12T16:37:10.044Z,30.08
2023-05-12T16:39:14.855Z,30.49
2023-05-12T16:41:20.855Z,30.56
2023-05-12T16:43:24.887Z,30.60
2023-05-12T16:45:29.170Z,30.72
2023-05-12T16:47:33.119Z,31.16
2023-05-12T16:49:40.693Z,30.69
2023-05-12T16:51:44.649Z,30.83
2023-05-12T16:53:48.187Z,31.05
2023-05-12T16:55:54.996Z,31.02
2023-05-12T16:58:00.572Z,30.91
2023-05-12T17:00:09.710Z,30.83
2023-05-12T17:02:14.040Z,31.40
2023-05-12T17:04:18.529Z,31.70
2023-05-12T17:06:23.203Z,31.94
2023-05-12T17:08:27.463Z,31.99
2023-05-12T17:10:33.243Z,32.01
2023-05-12T17:12:38.117Z,32.37
2023-05-12T17:14:47.872Z,32.24
2023-05-12T17:16:56.782Z,31.79
2023-05-12T17:21:08.900Z,32.25
2023-05-12T17:23:12.920Z,32.42
2023-05-12T17:25:17.093Z,32.28
2023-05-12T17:27:23.804Z,32.33
2023-05-12T17:29:28.608Z,32.67
2023-05-12T17:31:34.145Z,32.65
2023-05-12T17:33:38.213Z,32.58
2023-05-12T17:35:41.980Z,33.34
2023-05-12T17:37:45.555Z,33.17
2023-05-12T17:39:50.639Z,33.09
2023-05-12T17:41:54.169Z,33.13
2023-05-12T17:43:57.742Z,33.15
2023-05-12T17:46:01.728Z,32.97
2023-05-12T17:48:07.219Z,33.03
2023-05-12T17:50:12.271Z,32.97
2023-05-12T17:52:15.790Z,32.58
2023-05-12T17:54:19.267Z,32.59
2023-05-12T17:56:22.815Z,32.24
2023-05-12T17:58:26.491Z,32.18
2023-05-12T18:00:29.984Z,31.83
2023-05-12T18:02:33.605Z,32.56
2023-05-12T18:04:38.772Z,32.90
2023-05-12T18:06:42.552Z,32.50
2023-05-12T18:08:46.854Z,32.81
2023-05-12T18:10:50.491Z,33.06
2023-05-12T18:12:55.538Z,33.10
2023-05-12T18:14:59.049Z,33.13
2023-05-12T18:17:03.182Z,32.99
2023-05-12T18:19:07.723Z,32.94
2023-05-12T18:21:12.783Z,33.04
2023-05-12T18:23:16.134Z,33.20
2023-05-12T18:25:20.530Z,33.11
2023-05-12T18:27:24.455Z,33.85
2023-05-12T18:29:28.058Z,33.45
2023-05-12T18:31:31.625Z,33.73
2023-05-12T18:33:36.002Z,33.66
2023-05-12T18:35:39.392Z,33.88
2023-05-12T18:37:44.362Z,34.23
2023-05-12T18:39:47.712Z,34.55
2023-05-12T18:41:51.883Z,34.96
2023-05-12T18:43:55.395Z,35.50
2023-05-12T18:45:58.962Z,36.27
2023-05-12T18:48:02.371Z,36.71
2023-05-12T18:50:06.898Z,37.15
2023-05-12T18:52:10.522Z,37.72
2023-05-12T18:54:15.286Z,38.17
2023-05-12T18:56:18.773Z,38.89
2023-05-12T18:58:22.213Z,39.10
2023-05-12T19:00:27.774Z,40.02
2023-05-12T19:02:31.216Z,40.23
2023-05-12T19:04:34.684Z,41.03
2023-05-12T19:06:38.150Z,41.22
2023-05-12T19:08:41.742Z,41.14
2023-05-12T19:10:47.388Z,41.66
2023-05-12T19:12:51.644Z,41.90
2023-05-12T19:14:55.709Z,42.56
2023-05-12T19:17:00.035Z,42.69
2023-05-12T19:19:04.996Z,42.99
2023-05-12T19:21:10.598Z,43.41
2023-05-12T19:23:14.606Z,44.04
2023-05-12T19:25:20.126Z,44.32
2023-05-12T19:27:28.234Z,44.51
2023-05-12T19:29:31.682Z,44.55
2023-05-12T19:31:36.672Z,45.00
2023-05-12T19:33:41.149Z,45.39
2023-05-12T19:35:48.122Z,45.66
2023-05-12T19:37:53.423Z,45.97
2023-05-12T19:40:02.546Z,46.08
2023-05-12T19:42:10.225Z,46.24
2023-05-12T19:44:17.901Z,46.71
2023-05-12T19:46:21.503Z,47.13
2023-05-12T19:48:25.032Z,47.14
2023-05-12T19:50:29.880Z,47.28
2023-05-12T19:52:34.520Z,47.53
2023-05-12T19:54:38.258Z,47.58
2023-05-12T19:56:41.896Z,48.01
2023-05-12T19:58:45.477Z,48.06
2023-05-12T20:00:50.932Z,48.39
2023-05-12T20:02:54.540Z,48.94
2023-05-12T20:05:00.490Z,48.99
2023-05-12T20:07:03.940Z,49.34
2023-05-12T20:09:07.964Z,49.32
2023-05-12T20:11:11.574Z,49.81
2023-05-12T20:13:15.031Z,50.14
2023-05-12T20:15:18.980Z,50.22
2023-05-12T20:17:23.929Z,50.29
2023-05-12T20:19:27.903Z,50.98
2023-05-12T20:21:32.493Z,51.36
2023-05-12T20:23:36.306Z,51.99
2023-05-12T20:25:39.710Z,52.13
2023-05-12T20:27:46.570Z,52.58
2023-05-12T20:29:49.970Z,52.60
2023-05-12T20:31:53.783Z,52.86
2023-05-12T20:33:58.687Z,53.32
2023-05-12T20:36:02.249Z,53.71
2023-05-12T20:38:05.652Z,53.83
2023-05-12T20:40:10.810Z,53.96
2023-05-12T20:42:14.260Z,54.51
2023-05-12T20:44:17.754Z,54.33
2023-05-12T20:46:21.376Z,54.43
2023-05-12T20:48:24.819Z,54.48
2023-05-12T20:50:29.608Z,54.73
2023-05-12T20:52:33.772Z,54.81
2023-05-12T20:54:37.148Z,55.44
2023-05-12T20:56:40.529Z,55.84
2023-05-12T20:58:43.978Z,55.75
2023-05-12T21:00:47.338Z,55.78
2023-05-12T21:02:52.356Z,55.85
2023-05-12T21:04:56.119Z,56.04
2023-05-12T21:07:00.850Z,56.15
2023-05-12T21:09:05.056Z,56.35
2023-05-12T21:11:16.129Z,56.57
2023-05-12T21:13:19.580Z,56.80
2023-05-12T21:15:24.795Z,57.13
2023-05-12T21:17:29.399Z,57.11
2023-05-12T21:19:32.914Z,57.05
2023-05-12T21:21:36.429Z,57.05
2023-05-12T21:23:41.219Z,57.41
2023-05-12T21:25:44.640Z,57.39
2023-05-12T21:27:48.068Z,57.69
2023-05-12T21:29:51.449Z,57.75
2023-05-12T21:31:56.695Z,58.13
2023-05-12T21:34:00.474Z,58.41
2023-05-12T21:36:03.906Z,58.56
2023-05-12T21:38:08.606Z,58.64
2023-05-12T21:40:14.802Z,58.83
2023-05-12T21:42:18.279Z,58.90
2023-05-12T21:44:21.739Z,58.84
2023-05-12T21:46:25.247Z,59.18
2023-05-12T21:48:28.605Z,58.99
2023-05-12T21:50:31.955Z,59.16
2023-05-12T21:52:35.339Z,59.34
2023-05-12T21:54:38.775Z,59.32
2023-05-12T21:56:43.563Z,59.71
2023-05-12T21:58:47.263Z,60.05
2023-05-12T22:00:52.399Z,60.31
2023-05-12T22:02:55.996Z,60.62
2023-05-12T22:04:59.556Z,60.46
2023-05-12T22:07:03.010Z,60.73
2023-05-12T22:09:06.393Z,60.88
2023-05-12T22:11:10.179Z,61.01
2023-05-12T22:13:14.975Z,61.08
2023-05-12T22:15:18.732Z,61.07
2023-05-12T22:17:22.288Z,61.04
2023-05-12T22:19:25.790Z,61.14
2023-05-12T22:21:29.814Z,61.56
2023-05-12T22:23:33.230Z,61.75
2023-05-12T22:25:38.004Z,61.57
2023-05-12T22:27:41.391Z,61.75
2023-05-12T22:29:46.170Z,61.79
2023-05-12T22:31:49.587Z,62.11
2023-05-12T22:33:52.965Z,62.45
2023-05-12T22:35:56.322Z,62.66
2023-05-12T22:37:59.765Z,62.67
2023-05-12T22:40:03.943Z,62.54
2023-05-12T22:42:07.901Z,62.73
2023-05-12T22:44:11.614Z,63.05
2023-05-12T22:46:16.465Z,63.21
2023-05-12T22:48:20.185Z,63.43
2023-05-12T22:50:24.184Z,63.73
2023-05-12T22:52:28.171Z,63.77
2023-05-12T22:54:31.559Z,63.94
2023-05-12T22:56:34.944Z,64.16
2023-05-12T22:58:38.288Z,64.38
2023-05-12T23:00:41.759Z,64.54
2023-05-12T23:02:46.560Z,64.68
2023-05-12T23:04:49.951Z,64.93
2023-05-12T23:06:53.334Z,64.97
2023-05-12T23:08:56.959Z,65.17
2023-05-12T23:11:00.295Z,65.27
2023-05-12T23:13:03.822Z,65.51
2023-05-12T23:15:08.630Z,65.80
2023-05-12T23:17:12.122Z,65.98
2023-05-12T23:19:16.920Z,66.17
2023-05-12T23:21:20.285Z,66.27
2023-05-12T23:23:23.650Z,66.45
2023-05-12T23:25:26.907Z,66.58
2023-05-12T23:27:30.055Z,66.69
2023-05-12T23:29:34.523Z,67.04
2023-05-12T23:31:37.906Z,67.06
2023-05-12T23:33:41.265Z,67.23
2023-05-12T23:35:46.054Z,67.32
2023-05-12T23:37:49.361Z,67.56
2023-05-12T23:39:52.650Z,67.73
2023-05-12T23:41:55.930Z,67.83
2023-05-12T23:43:59.219Z,67.99
2023-05-12T23:46:02.523Z,68.07
2023-05-12T23:48:06.446Z,68.39
2023-05-12T23:50:10.378Z,68.42
2023-05-12T23:52:15.086Z,68.53
2023-05-12T23:54:18.368Z,68.84
2023-05-12T23:56:21.748Z,68.86
2023-05-12T23:58:24.959Z,69.02
